createdAt,value
2019-01-11T00:02:23.917Z,3.47
2019-01-11T00:04:53.561Z,3.70
2019-01-11T00:07:24.159Z,3.50
2019-01-11T00:09:53.821Z,4.47
2019-01-11T00:12:23.700Z,4.50
2019-01-11T00:14:53.338Z,4.90
2019-01-11T00:17:23.025Z,4.33
2019-01-11T00:19:52.597Z,5.20
2019-01-11T00:22:22.107Z,5.20
2019-01-11T00:24:51.798Z,5.95
2019-01-11T00:27:21.451Z,7.00
2019-01-11T00:29:51.176Z,6.78
2019-01-11T00:32:20.747Z,7.55
2019-01-11T00:34:50.290Z,6.90
2019-01-11T00:37:19.843Z,7.28
2019-01-11T00:39:49.498Z,7.92
2019-01-11T00:42:19.115Z,8.80
2019-01-11T00:44:48.723Z,7.78
2019-01-11T00:47:18.372Z,7.45
2019-01-11T00:49:48.081Z,8.23
2019-01-11T00:52:18.054Z,8.53
2019-01-11T00:54:47.870Z,7.03
2019-01-11T00:57:17.446Z,7.60
2019-01-11T00:59:47.118Z,7.55
2019-01-11T01:02:16.849Z,9.10
2019-01-11T01:04:46.606Z,8.08
2019-01-11T01:07:16.215Z,6.78
2019-01-11T01:09:45.926Z,7.45
2019-01-11T01:12:15.459Z,6.92
2019-01-11T01:14:45.022Z,7.90
2019-01-11T01:17:14.558Z,8.40
2019-01-11T01:19:44.180Z,6.85
2019-01-11T01:22:13.874Z,7.53
2019-01-11T01:24:43.395Z,7.50
2019-01-11T01:27:12.984Z,8.30
2019-01-11T01:29:42.588Z,7.90
2019-01-11T01:32:12.171Z,9.43
2019-01-11T01:34:41.867Z,9.58
2019-01-11T01:37:11.523Z,8.08
2019-01-11T01:39:41.186Z,8.70
2019-01-11T01:42:10.694Z,7.78
2019-01-11T01:44:41.252Z,8.05
2019-01-11T01:47:10.856Z,9.65
2019-01-11T01:49:40.593Z,7.95
2019-01-11T01:52:10.072Z,7.60
2019-01-11T01:54:39.751Z,9.55
2019-01-11T01:57:09.262Z,7.72
2019-01-11T01:59:38.785Z,8.30
2019-01-11T02:02:08.368Z,8.60
2019-01-11T02:04:37.900Z,7.85
2019-01-11T02:07:07.580Z,7.90
2019-01-11T02:09:37.050Z,7.83
2019-01-11T02:12:06.775Z,7.28
2019-01-11T02:14:36.329Z,7.50
2019-01-11T02:17:07.062Z,9.00
2019-01-11T02:19:36.622Z,7.53
2019-01-11T02:22:06.601Z,7.30
2019-01-11T02:24:36.324Z,8.33
2019-01-11T02:27:06.044Z,8.90
2019-01-11T02:29:35.581Z,9.13
2019-01-11T02:32:05.557Z,8.75
2019-01-11T02:34:35.321Z,8.55
2019-01-11T02:37:05.042Z,8.00
2019-01-11T02:39:34.573Z,8.58
2019-01-11T02:42:04.250Z,9.65
2019-01-11T02:44:33.985Z,9.65
2019-01-11T02:47:03.596Z,9.00
2019-01-11T02:49:39.805Z,10.68
2019-01-11T02:52:04.655Z,9.68
2019-01-11T02:54:35.701Z,9.15
2019-01-11T02:57:05.807Z,9.80
2019-01-11T02:59:35.400Z,10.68
2019-01-11T03:02:05.314Z,10.85
2019-01-11T03:04:35.010Z,9.05
2019-01-11T03:07:04.687Z,10.20
2019-01-11T03:09:34.470Z,9.50
2019-01-11T03:12:04.097Z,8.65
2019-01-11T03:14:33.658Z,9.98
2019-01-11T03:17:03.141Z,10.25
2019-01-11T03:19:32.771Z,9.93
2019-01-11T03:22:02.340Z,10.55
2019-01-11T03:24:32.143Z,12.18
2019-01-11T03:27:01.695Z,11.80
2019-01-11T03:29:31.303Z,12.78
2019-01-11T03:32:01.012Z,11.12
2019-01-11T03:34:31.487Z,11.00
2019-01-11T03:37:01.043Z,12.13
2019-01-11T03:39:31.681Z,10.72
2019-01-11T03:42:19.746Z,12.65
2019-01-11T03:44:49.427Z,11.85
2019-01-11T03:47:19.026Z,12.03
2019-01-11T03:49:54.751Z,13.00
2019-01-11T03:52:21.113Z,12.93
2019-01-11T03:54:50.759Z,13.18
2019-01-11T03:57:20.360Z,12.78
2019-01-11T03:59:49.828Z,10.55
2019-01-11T04:02:19.470Z,12.28
2019-01-11T04:04:49.103Z,11.80
2019-01-11T04:07:18.693Z,11.35
2019-01-11T04:09:48.197Z,11.45
2019-01-11T04:12:17.905Z,11.83
2019-01-11T04:14:47.614Z,11.50
2019-01-11T04:17:17.362Z,12.15
2019-01-11T04:19:47.017Z,11.00
2019-01-11T04:22:26.931Z,10.25
2019-01-11T04:25:10.937Z,10.00
2019-01-11T04:27:40.579Z,11.28
2019-01-11T04:30:14.858Z,10.98
2019-01-11T04:32:44.474Z,10.20
2019-01-11T04:35:14.329Z,10.80
2019-01-11T04:37:44.118Z,11.18
2019-01-11T04:40:15.304Z,11.65
2019-01-11T04:42:44.973Z,10.68
2019-01-11T04:45:14.578Z,7.87
2019-01-11T04:47:44.217Z,9.88
2019-01-11T04:50:16.725Z,11.18
2019-01-11T04:52:46.624Z,10.50
2019-01-11T04:55:17.430Z,11.40
2019-01-11T04:57:46.958Z,11.83
2019-01-11T05:00:21.500Z,11.60
2019-01-11T05:02:51.386Z,11.50
2019-01-11T05:05:21.070Z,12.25
2019-01-11T05:07:50.690Z,12.98
2019-01-11T05:10:21.383Z,12.18
2019-01-11T05:12:50.991Z,12.93
2019-01-11T05:15:20.606Z,13.58
2019-01-11T05:17:50.279Z,15.35
2019-01-11T05:20:19.921Z,14.40
2019-01-11T05:22:49.730Z,15.93
2019-01-11T05:25:19.367Z,14.35
2019-01-11T05:27:51.192Z,14.40
2019-01-11T05:30:23.005Z,14.80
2019-01-11T05:32:52.531Z,15.83
2019-01-11T05:35:22.524Z,16.70
2019-01-11T05:38:11.299Z,15.45
2019-01-11T05:40:41.036Z,16.80
2019-01-11T05:43:10.688Z,15.90
2019-01-11T05:45:41.733Z,17.15
2019-01-11T05:48:11.298Z,17.25
2019-01-11T05:50:41.037Z,18.50
2019-01-11T05:53:10.761Z,15.93
2019-01-11T05:55:47.532Z,17.70
2019-01-11T05:58:41.997Z,15.40
2019-01-11T06:01:12.169Z,19.10
2019-01-11T06:03:41.903Z,16.90
2019-01-11T06:06:12.161Z,16.40
2019-01-11T06:08:42.195Z,15.23
2019-01-11T06:11:12.727Z,19.23
2019-01-11T06:13:42.826Z,17.85
2019-01-11T06:16:13.066Z,17.07
2019-01-11T06:18:42.748Z,18.32
2019-01-11T06:21:12.709Z,18.23
2019-01-11T06:23:45.638Z,18.55
2019-01-11T06:26:15.257Z,19.52
2019-01-11T06:28:44.802Z,19.07
2019-01-11T06:31:14.735Z,20.08
2019-01-11T06:33:44.344Z,19.02
2019-01-11T06:36:13.983Z,19.00
2019-01-11T06:38:43.717Z,21.15
2019-01-11T06:41:13.761Z,20.43
2019-01-11T06:43:52.009Z,20.70
2019-01-11T06:46:23.524Z,20.65
2019-01-11T06:48:53.017Z,19.87
2019-01-11T06:51:22.624Z,20.77
2019-01-11T06:53:52.242Z,18.73
2019-01-11T06:56:22.047Z,19.57
2019-01-11T06:58:51.784Z,21.23
2019-01-11T07:01:21.539Z,19.35
2019-01-11T07:03:51.454Z,19.05
2019-01-11T07:06:20.961Z,19.98
2019-01-11T07:08:50.608Z,19.02
2019-01-11T07:11:20.381Z,21.70
2019-01-11T07:13:50.287Z,22.70
2019-01-11T07:16:20.824Z,19.75
2019-01-11T07:18:50.395Z,20.20
2019-01-11T07:21:20.347Z,18.55
2019-01-11T07:23:49.914Z,21.05
2019-01-11T07:26:20.584Z,22.50
2019-01-11T07:28:50.573Z,20.20
2019-01-11T07:31:23.933Z,22.50
2019-01-11T07:33:54.059Z,22.58
2019-01-11T07:36:31.662Z,21.00
2019-01-11T07:39:02.281Z,21.77
2019-01-11T07:41:32.512Z,21.55
2019-01-11T07:44:02.484Z,23.83
2019-01-11T07:46:32.341Z,22.85
2019-01-11T07:49:02.286Z,21.02
2019-01-11T07:51:31.914Z,23.70
2019-01-11T07:54:02.205Z,24.05
2019-01-11T07:56:31.783Z,22.55
2019-01-11T07:59:01.453Z,23.65
2019-01-11T08:01:35.622Z,21.33
2019-01-11T08:04:06.210Z,24.35
2019-01-11T08:06:35.745Z,21.73
2019-01-11T08:09:08.197Z,23.50
2019-01-11T08:11:37.901Z,25.20
2019-01-11T08:14:08.509Z,23.92
2019-01-11T08:16:38.137Z,23.50
2019-01-11T08:19:07.838Z,21.65
2019-01-11T08:21:37.955Z,23.27
2019-01-11T08:24:07.823Z,23.50
2019-01-11T08:26:37.430Z,23.45
2019-01-11T08:29:07.327Z,24.18
2019-01-11T08:31:36.864Z,25.68
2019-01-11T08:34:06.783Z,22.58
2019-01-11T08:36:36.643Z,24.07
2019-01-11T08:39:09.030Z,25.57
2019-01-11T08:41:38.806Z,23.27
2019-01-11T08:44:08.515Z,21.87
2019-01-11T08:46:38.114Z,22.93
2019-01-11T08:49:07.775Z,24.10
2019-01-11T08:51:37.516Z,22.48
2019-01-11T08:54:07.177Z,25.05
2019-01-11T08:56:36.797Z,22.93
2019-01-11T08:59:06.841Z,23.55
2019-01-11T09:01:36.491Z,26.33
2019-01-11T09:04:06.196Z,23.40
2019-01-11T09:06:35.931Z,26.07
2019-01-11T09:09:08.788Z,23.90
2019-01-11T09:11:38.309Z,24.18
2019-01-11T09:14:09.667Z,25.68
2019-01-11T09:16:39.362Z,22.62
2019-01-11T09:19:10.083Z,24.67
2019-01-11T09:21:41.697Z,24.45
2019-01-11T09:24:10.903Z,23.95
2019-01-11T09:26:40.494Z,25.80
2019-01-11T09:29:10.382Z,24.25
2019-01-11T09:31:40.050Z,24.82
2019-01-11T09:34:13.799Z,23.15
2019-01-11T09:36:43.963Z,26.10
2019-01-11T09:39:13.562Z,24.32
2019-01-11T09:41:43.296Z,24.63
2019-01-11T09:44:12.991Z,25.37
2019-01-11T09:46:42.643Z,22.90
2019-01-11T09:49:12.575Z,22.87
2019-01-11T09:51:42.676Z,22.42
2019-01-11T09:54:12.637Z,23.35
2019-01-11T09:56:42.303Z,21.97
2019-01-11T09:59:12.045Z,23.77
2019-01-11T10:01:43.375Z,21.37
2019-01-11T10:04:16.875Z,23.45
2019-01-11T10:07:00.188Z,20.32
2019-01-11T10:09:31.138Z,20.75
2019-01-11T10:12:01.753Z,21.50
2019-01-11T10:14:31.394Z,23.07
2019-01-11T10:17:01.184Z,21.70
2019-01-11T10:19:30.853Z,22.07
2019-01-11T10:22:00.618Z,20.15
2019-01-11T10:24:30.453Z,21.62
2019-01-11T10:27:00.116Z,20.92
2019-01-11T10:29:29.755Z,19.32
2019-01-11T10:31:59.390Z,18.92
2019-01-11T10:34:29.275Z,19.25
2019-01-11T10:36:58.854Z,18.17
2019-01-11T10:39:28.521Z,18.15
2019-01-11T10:41:58.233Z,17.75
2019-01-11T10:44:27.720Z,17.37
2019-01-11T10:46:57.534Z,14.93
2019-01-11T10:49:27.319Z,16.87
2019-01-11T10:51:56.910Z,15.90
2019-01-11T10:54:40.687Z,16.52
2019-01-11T10:57:10.350Z,21.40
2019-01-11T10:59:40.089Z,17.05
2019-01-11T11:02:09.520Z,17.35
2019-01-11T11:04:39.221Z,19.10
2019-01-11T11:07:09.119Z,18.15
2019-01-11T11:09:38.800Z,15.32
2019-01-11T11:12:08.949Z,17.37
2019-01-11T11:14:38.583Z,14.90
2019-01-11T11:17:08.207Z,14.93
2019-01-11T11:19:37.824Z,15.50
2019-01-11T11:22:07.476Z,15.55
2019-01-11T11:24:37.392Z,15.15
2019-01-11T11:27:07.343Z,11.57
2019-01-11T11:29:36.956Z,11.73
2019-01-11T11:32:06.886Z,14.95
2019-01-11T11:34:38.730Z,13.38
2019-01-11T11:37:09.320Z,13.75
2019-01-11T11:39:38.962Z,12.73
2019-01-11T11:42:08.661Z,11.93
2019-01-11T11:44:38.338Z,12.33
2019-01-11T11:47:07.928Z,11.25
2019-01-11T11:49:37.552Z,12.43
2019-01-11T11:52:07.240Z,10.55
2019-01-11T11:54:36.921Z,11.40
2019-01-11T11:57:06.392Z,15.00
2019-01-11T11:59:54.880Z,12.88
2019-01-11T12:02:24.452Z,12.98
2019-01-11T12:04:54.471Z,13.78
2019-01-11T12:07:24.092Z,14.45
2019-01-11T12:09:53.893Z,11.48
2019-01-11T12:12:23.903Z,13.88
2019-01-11T12:14:53.606Z,14.18
2019-01-11T12:17:23.353Z,12.78
2019-01-11T12:19:57.012Z,11.48
2019-01-11T12:22:24.272Z,12.73
2019-01-11T12:24:53.998Z,12.93
2019-01-11T12:27:24.051Z,11.65
2019-01-11T12:29:53.730Z,12.80
2019-01-11T12:32:23.593Z,13.62
2019-01-11T12:34:53.284Z,11.53
2019-01-11T12:37:25.659Z,13.62
2019-01-11T12:39:55.346Z,11.57
2019-01-11T12:42:25.568Z,12.28
2019-01-11T12:44:55.264Z,12.90
2019-01-11T12:47:25.341Z,9.98
2019-01-11T12:49:55.403Z,9.98
2019-01-11T12:52:25.337Z,12.45
2019-01-11T12:54:56.293Z,9.65
2019-01-11T12:57:26.280Z,8.53
2019-01-11T12:59:56.100Z,8.48
2019-01-11T13:02:28.243Z,8.00
2019-01-11T13:04:58.299Z,6.67
2019-01-11T13:07:55.490Z,6.05
2019-01-11T13:10:44.594Z,5.00
2019-01-11T13:16:09.270Z,5.50
2019-01-11T13:18:53.828Z,4.47
2019-01-11T13:21:27.475Z,4.80
2019-01-11T13:23:57.400Z,4.50
2019-01-11T13:26:35.039Z,4.55
2019-01-11T13:29:04.910Z,4.42
2019-01-11T13:31:34.647Z,4.30
2019-01-11T13:34:04.810Z,4.10
2019-01-11T13:36:35.550Z,4.45
2019-01-11T13:39:10.064Z,5.00
2019-01-11T13:41:39.917Z,4.67
2019-01-11T13:44:09.436Z,2.90
2019-01-11T13:46:39.063Z,2.87
2019-01-11T13:49:12.286Z,3.30
2019-01-11T13:51:43.109Z,4.33
2019-01-11T13:54:12.807Z,4.12
2019-01-11T13:56:43.662Z,3.65
2019-01-11T13:59:13.197Z,3.00
2019-01-11T14:01:43.009Z,2.75
2019-01-11T14:04:12.709Z,2.40
2019-01-11T14:06:42.375Z,2.92
2019-01-11T14:09:12.058Z,2.80
2019-01-11T14:11:42.323Z,3.12
2019-01-11T14:14:16.863Z,3.77
2019-01-11T14:16:49.683Z,3.50
2019-01-11T14:19:19.527Z,3.00
2019-01-11T14:21:49.240Z,2.27
2019-01-11T14:24:18.899Z,2.02
2019-01-11T14:26:48.397Z,3.00
2019-01-11T14:29:17.975Z,3.52
2019-01-11T14:31:47.892Z,3.40
2019-01-11T14:34:17.518Z,3.00
2019-01-11T14:37:06.523Z,2.33
2019-01-11T14:39:36.205Z,3.30
2019-01-11T14:42:05.808Z,3.98
2019-01-11T14:44:35.793Z,3.58
2019-01-11T14:47:05.496Z,2.50
2019-01-11T14:49:35.429Z,3.22
2019-01-11T14:52:05.315Z,3.33
2019-01-11T14:54:35.184Z,2.77
2019-01-11T14:57:04.891Z,2.92
2019-01-11T14:59:34.942Z,2.50
2019-01-11T15:02:05.240Z,2.70
2019-01-11T15:04:34.982Z,2.42
2019-01-11T15:07:04.958Z,2.20
2019-01-11T15:09:34.723Z,3.30
2019-01-11T15:12:04.639Z,2.30
2019-01-11T15:14:34.483Z,2.10
2019-01-11T15:17:04.144Z,3.12
2019-01-11T15:19:33.789Z,3.83
2019-01-11T15:22:03.451Z,3.37
2019-01-11T15:24:34.138Z,3.27
2019-01-11T15:27:03.736Z,1.92
2019-01-11T15:29:33.560Z,2.08
2019-01-11T15:32:03.197Z,2.52
2019-01-11T15:34:32.884Z,1.85
2019-01-11T15:37:02.508Z,3.05
2019-01-11T15:39:32.036Z,2.60
2019-01-11T15:42:01.933Z,1.95
2019-01-11T15:44:31.472Z,2.60
2019-01-11T15:47:00.986Z,2.40
2019-01-11T15:49:33.756Z,2.12
2019-01-11T15:52:23.892Z,2.35
2019-01-11T15:54:53.477Z,1.65
2019-01-11T15:57:44.569Z,1.00
2019-01-11T16:00:42.202Z,2.65
2019-01-11T16:03:14.570Z,1.90
2019-01-11T16:05:44.468Z,1.22
2019-01-11T16:08:33.276Z,1.30
2019-01-11T16:11:30.642Z,1.55
2019-01-11T16:14:43.572Z,1.47
2019-01-11T16:17:15.151Z,2.15
2019-01-11T16:19:44.960Z,1.62
2019-01-11T16:22:25.979Z,2.25
2019-01-11T16:24:55.764Z,2.40
2019-01-11T16:27:25.222Z,1.62
2019-01-11T16:33:03.258Z,1.67
2019-01-11T16:35:33.055Z,1.55
2019-01-11T16:38:02.928Z,1.77
2019-01-11T16:40:32.824Z,1.67
2019-01-11T16:43:03.169Z,2.20
2019-01-11T16:45:32.840Z,1.80
2019-01-11T16:48:02.513Z,1.92
2019-01-11T16:50:32.200Z,1.80
2019-01-11T16:53:01.829Z,1.70
2019-01-11T16:55:32.676Z,2.30
2019-01-11T16:58:02.448Z,1.32
2019-01-11T17:00:32.002Z,1.90
2019-01-11T17:03:01.807Z,2.45
2019-01-11T17:05:31.474Z,2.17
2019-01-11T17:08:01.192Z,1.75
2019-01-11T17:10:32.291Z,2.45
2019-01-11T17:14:18.039Z,2.00
2019-01-11T17:16:52.303Z,2.65
2019-01-11T17:19:21.980Z,1.98
2019-01-11T17:21:51.949Z,1.62
2019-01-11T17:24:39.603Z,1.87
2019-01-11T17:27:09.278Z,2.20
2019-01-11T17:29:38.958Z,2.55
2019-01-11T17:32:18.309Z,2.00
2019-01-11T17:34:47.981Z,2.12
2019-01-11T17:37:18.146Z,3.25
2019-01-11T17:39:49.748Z,3.45
2019-01-11T17:42:19.372Z,3.98
2019-01-11T17:44:49.145Z,2.27
2019-01-11T17:47:18.932Z,3.08
2019-01-11T17:49:49.517Z,3.05
2019-01-11T17:52:19.098Z,2.90
2019-01-11T17:55:10.986Z,2.87
2019-01-11T17:57:40.730Z,5.10
2019-01-11T18:00:13.552Z,4.08
2019-01-11T18:02:43.350Z,3.80
2019-01-11T18:05:14.053Z,2.72
2019-01-11T18:07:43.780Z,3.05
2019-01-11T18:10:14.072Z,2.47
2019-01-11T18:12:43.813Z,3.30
2019-01-11T18:15:19.281Z,2.98
2019-01-11T18:17:50.562Z,3.85
2019-01-11T18:20:25.840Z,3.40
2019-01-11T18:22:55.931Z,4.08
2019-01-11T18:25:25.524Z,4.60
2019-01-11T18:27:55.266Z,3.15
2019-01-11T18:30:25.532Z,3.30
2019-01-11T18:32:55.193Z,2.92
2019-01-11T18:35:27.424Z,4.58
2019-01-11T18:38:03.534Z,3.72
2019-01-11T18:40:33.359Z,2.20
2019-01-11T18:43:08.072Z,3.77
2019-01-11T18:45:41.833Z,2.47
2019-01-11T18:48:11.762Z,3.98
2019-01-11T18:50:45.204Z,3.58
2019-01-11T18:53:14.799Z,7.65
2019-01-11T18:55:44.401Z,3.05
2019-01-11T18:58:13.952Z,1.87
2019-01-11T19:00:44.472Z,3.65
2019-01-11T19:03:14.135Z,3.20
2019-01-11T19:05:43.629Z,2.75
2019-01-11T19:08:13.472Z,3.12
2019-01-11T19:10:42.992Z,2.98
2019-01-11T19:13:12.570Z,5.70
2019-01-11T19:15:42.246Z,3.85
2019-01-11T19:18:11.928Z,3.12
2019-01-11T19:20:41.464Z,3.05
2019-01-11T19:23:20.156Z,3.25
2019-01-11T19:25:45.467Z,3.10
2019-01-11T19:28:15.177Z,2.72
2019-01-11T19:30:44.674Z,3.55
2019-01-11T19:33:14.466Z,4.00
2019-01-11T19:35:44.466Z,4.10
2019-01-11T19:38:14.048Z,2.85
2019-01-11T19:40:43.572Z,3.58
2019-01-11T19:43:13.091Z,3.02
2019-01-11T19:45:43.426Z,3.30
2019-01-11T19:48:13.258Z,4.25
2019-01-11T19:50:42.927Z,2.80
2019-01-11T19:53:13.193Z,3.30
2019-01-11T19:55:42.807Z,3.00
2019-01-11T19:58:12.411Z,3.12
2019-01-11T20:00:41.997Z,5.05
2019-01-11T20:03:13.772Z,4.40
2019-01-11T20:05:43.538Z,8.28
2019-01-11T20:08:13.682Z,4.12
2019-01-11T20:10:46.739Z,3.40
2019-01-11T20:13:17.738Z,5.00
2019-01-11T20:15:48.326Z,3.70
2019-01-11T20:18:18.192Z,2.75
2019-01-11T20:20:47.840Z,3.83
2019-01-11T20:23:17.630Z,3.85
2019-01-11T20:25:47.408Z,4.95
2019-01-11T20:28:17.395Z,4.20
2019-01-11T20:30:47.484Z,4.17
2019-01-11T20:33:17.053Z,4.70
2019-01-11T20:35:46.862Z,2.77
2019-01-11T20:38:17.270Z,5.00
2019-01-11T20:40:47.044Z,3.77
2019-01-11T20:43:16.853Z,2.22
2019-01-11T20:45:46.561Z,3.20
2019-01-11T20:48:16.432Z,2.72
2019-01-11T20:50:46.050Z,3.27
2019-01-11T20:53:15.869Z,3.90
2019-01-11T20:55:45.624Z,2.58
2019-01-11T20:58:15.873Z,3.10
2019-01-11T21:00:45.512Z,3.17
2019-01-11T21:03:20.620Z,3.35
2019-01-11T21:05:50.424Z,3.58
2019-01-11T21:08:20.058Z,3.37
2019-01-11T21:10:50.061Z,3.80
2019-01-11T21:13:20.054Z,3.80
2019-01-11T21:15:59.607Z,3.37
2019-01-11T21:18:29.189Z,4.33
2019-01-11T21:20:59.306Z,3.60
2019-01-11T21:23:33.445Z,4.50
2019-01-11T21:26:03.073Z,2.80
2019-01-11T21:28:33.306Z,3.08
2019-01-11T21:31:04.105Z,2.70
2019-01-11T21:33:52.830Z,2.75
2019-01-11T21:36:27.971Z,2.65
2019-01-11T21:38:57.915Z,2.90
2019-01-11T21:41:27.774Z,2.60
2019-01-11T21:43:57.709Z,2.77
2019-01-11T21:46:27.530Z,1.72
2019-01-11T21:48:57.743Z,2.05
2019-01-11T21:51:27.488Z,2.17
2019-01-11T21:53:57.463Z,1.92
2019-01-11T21:56:27.894Z,1.85
2019-01-11T21:58:58.265Z,2.22
2019-01-11T22:01:28.410Z,2.50
2019-01-11T22:03:58.597Z,3.00
2019-01-11T22:06:28.628Z,1.60
2019-01-11T22:08:58.498Z,1.80
2019-01-11T22:11:28.015Z,1.50
2019-01-11T22:14:09.255Z,2.65
2019-01-11T22:16:38.848Z,2.15
2019-01-11T22:19:13.651Z,2.08
2019-01-11T22:21:43.420Z,2.20
2019-01-11T22:24:13.003Z,1.77
2019-01-11T22:26:42.812Z,1.62
2019-01-11T22:29:12.421Z,2.67
2019-01-11T22:31:42.396Z,1.70
2019-01-11T22:34:12.209Z,1.80
2019-01-11T22:36:41.857Z,1.77
2019-01-11T22:39:17.047Z,1.70
2019-01-11T22:41:47.639Z,1.80
2019-01-11T22:44:17.202Z,2.30
2019-01-11T22:46:46.779Z,2.35
2019-01-11T22:49:16.340Z,1.80
2019-01-11T22:51:45.879Z,1.70
2019-01-11T22:54:15.482Z,1.80
2019-01-11T22:56:45.199Z,2.05
2019-01-11T22:59:14.809Z,1.92
2019-01-11T23:02:11.973Z,7.90
2019-01-11T23:04:42.641Z,1.75
2019-01-11T23:07:42.430Z,1.60
2019-01-11T23:10:55.742Z,1.70
2019-01-11T23:13:25.350Z,1.72
2019-01-11T23:16:02.059Z,1.50
2019-01-11T23:18:32.998Z,1.57
2019-01-11T23:21:07.867Z,1.25
2019-01-11T23:23:37.537Z,1.42
2019-01-11T23:26:07.366Z,1.85
2019-01-11T23:28:37.300Z,1.62
2019-01-11T23:31:07.055Z,1.40
2019-01-11T23:33:36.631Z,1.55
2019-01-11T23:36:06.385Z,1.60
2019-01-11T23:38:36.173Z,2.02
2019-01-11T23:41:09.721Z,1.50
2019-01-11T23:43:39.454Z,2.10
2019-01-11T23:46:09.657Z,2.70
2019-01-11T23:48:39.516Z,2.20
2019-01-11T23:51:09.396Z,2.00
2019-01-11T23:53:39.386Z,2.00
2019-01-11T23:56:09.317Z,2.55
2019-01-11T23:58:39.510Z,2.62
